Time;durP1;ratioP1;P1;durP2;ratioP2;P2;SDS_P1;SDS_P2;PMS_P1;PMS_P2;Temp;Humidity;BMP_temperature;BMP_pressure;BME280_temperature;BME280_humidity;BME280_pressure;Samples;Min_cycle;Max_cycle;Signal;HPM_P1;HPM_P2
2023/09/17 06:06:27;;;;;;;;;10.00;10.00;;;;;;;;6239126;22;45610;-79
2023/09/17 06:08:53;;;;;;;;;16.67;14.67;;;;;;;;6305571;22;45318;-78
2023/09/17 06:11:18;;;;;;;;;14.00;14.00;;;;;;;;6304742;22;45528;-78
2023/09/17 06:13:44;;;;;;;;;14.33;11.00;;;;;;;;6305642;22;45475;-80
2023/09/17 06:16:09;;;;;;;;;13.33;13.33;;;;;;;;6305621;22;45336;-79
2023/09/17 06:18:34;;;;;;;;;14.67;12.33;;;;;;;;6306520;22;45323;-81
2023/09/17 06:21:00;;;;;;;;;13.00;13.00;;;;;;;;6306030;22;45507;-79
2023/09/17 06:23:25;;;;;;;;;12.33;10.33;;;;;;;;6304708;22;45210;-77
2023/09/17 06:25:50;;;;;;;;;14.67;13.00;;;;;;;;6277553;22;45633;-78
2023/09/17 06:28:16;;;;;;;;;11.00;11.00;;;;;;;;6306219;22;45396;-79
2023/09/17 06:30:41;;;;;;;;;11.67;10.67;;;;;;;;6306292;22;45177;-79
2023/09/17 06:33:06;;;;;;;;;12.67;12.00;;;;;;;;6305327;22;46373;-80
2023/09/17 06:35:31;;;;;;;;;12.00;12.00;;;;;;;;6306060;22;45230;-80
2023/09/17 06:37:57;;;;;;;;;14.33;13.00;;;;;;;;6306859;22;45393;-80
2023/09/17 06:40:22;;;;;;;;;12.00;12.00;;;;;;;;6306312;22;45551;-79
2023/09/17 06:42:48;;;;;;;;;13.00;10.67;;;;;;;;6307231;22;46807;-79
2023/09/17 06:45:13;;;;;;;;;14.00;12.00;;;;;;;;6305163;22;45471;-78
2023/09/17 06:47:38;;;;;;;;;11.67;11.33;;;;;;;;6306924;22;45398;-77
2023/09/17 06:50:04;;;;;;;;;10.33;10.33;;;;;;;;6306040;22;45398;-78
2023/09/17 06:52:29;;;;;;;;;12.00;12.00;;;;;;;;6305733;22;45268;-78
2023/09/17 06:54:54;;;;;;;;;14.00;12.33;;;;;;;;6304948;22;45893;-78
2023/09/17 06:57:19;;;;;;;;;14.00;14.00;;;;;;;;6306450;22;45391;-78
2023/09/17 06:59:46;;;;;;;;;17.67;15.00;;;;;;;;6306205;22;45429;-79
2023/09/17 07:02:11;;;;;;;;;13.67;12.00;;;;;;;;6304466;22;46306;-78
2023/09/17 07:04:36;;;;;;;;;14.00;14.00;;;;;;;;6305689;22;45421;-77
2023/09/17 07:07:02;;;;;;;;;14.33;14.33;;;;;;;;6305210;22;45287;-79
2023/09/17 07:09:28;;;;;;;;;14.67;10.33;;;;;;;;6305962;22;45612;-78
2023/09/17 07:11:53;;;;;;;;;19.00;16.67;;;;;;;;6317867;22;45387;-77
2023/09/17 07:14:18;;;;;;;;;12.33;10.67;;;;;;;;6294511;22;45033;-78
2023/09/17 07:16:44;;;;;;;;;14.00;13.00;;;;;;;;6311146;22;45296;-80
2023/09/17 07:19:09;;;;;;;;;11.00;11.00;;;;;;;;6309599;22;45582;-80
2023/09/17 07:21:34;;;;;;;;;7.33;7.33;;;;;;;;6307398;22;45661;-80
2023/09/17 07:23:59;;;;;;;;;12.00;10.33;;;;;;;;6279213;22;45244;-80
2023/09/17 07:26:25;;;;;;;;;11.00;10.00;;;;;;;;6307183;22;45252;-80
2023/09/17 07:28:50;;;;;;;;;12.33;10.67;;;;;;;;6307288;22;45581;-78
2023/09/17 07:31:15;;;;;;;;;9.00;8.00;;;;;;;;6306559;22;45984;-76
2023/09/17 07:33:42;;;;;;;;;10.00;8.00;;;;;;;;6279356;22;45272;-81
2023/09/17 07:36:07;;;;;;;;;11.33;9.00;;;;;;;;6309589;22;45251;-76
2023/09/17 07:38:33;;;;;;;;;9.00;7.33;;;;;;;;6309672;22;45193;-76
2023/09/17 07:40:59;;;;;;;;;8.00;8.00;;;;;;;;6309531;22;45179;-76
2023/09/17 07:43:24;;;;;;;;;10.00;9.00;;;;;;;;6309651;22;45136;-76
2023/09/17 07:45:49;;;;;;;;;8.00;8.00;;;;;;;;6281107;22;45257;-76
2023/09/17 07:48:14;;;;;;;;;11.00;10.00;;;;;;;;6309909;22;45487;-77
2023/09/17 07:50:40;;;;;;;;;9.67;9.00;;;;;;;;6308906;22;46073;-76
2023/09/17 07:53:07;;;;;;;;;9.33;9.00;;;;;;;;6309995;22;45533;-76
2023/09/17 07:55:32;;;;;;;;;10.00;9.67;;;;;;;;6309289;22;45282;-75
2023/09/17 07:57:57;;;;;;;;;6.67;6.00;;;;;;;;6309629;22;45271;-75
2023/09/17 08:00:22;;;;;;;;;7.00;7.00;;;;;;;;6309468;22;46074;-74
2023/09/17 08:02:48;;;;;;;;;7.33;7.33;;;;;;;;6309750;22;45365;-75
2023/09/17 08:05:14;;;;;;;;;9.00;7.67;;;;;;;;6309395;22;45351;-74
2023/09/17 08:07:40;;;;;;;;;9.67;9.67;;;;;;;;6308279;22;45469;-75
2023/09/17 08:10:06;;;;;;;;;8.00;8.00;;;;;;;;6309426;22;45221;-75
2023/09/17 08:12:31;;;;;;;;;8.00;8.00;;;;;;;;6280708;22;45275;-74
2023/09/17 08:14:57;;;;;;;;;7.33;7.00;;;;;;;;6309879;22;45089;-75
2023/09/17 08:17:22;;;;;;;;;7.00;4.33;;;;;;;;6309758;22;45263;-75
2023/09/17 08:19:48;;;;;;;;;9.00;6.00;;;;;;;;6308841;22;46826;-75
2023/09/17 08:22:13;;;;;;;;;8.67;8.67;;;;;;;;6309037;22;45207;-76
2023/09/17 08:24:38;;;;;;;;;6.33;5.33;;;;;;;;6282129;22;45215;-77
2023/09/17 08:27:04;;;;;;;;;9.33;7.67;;;;;;;;6308135;22;45311;-76
2023/09/17 08:29:29;;;;;;;;;8.67;7.33;;;;;;;;6308494;22;45485;-77
2023/09/17 08:31:55;;;;;;;;;7.67;7.00;;;;;;;;6302266;22;45289;-76
2023/09/17 08:34:20;;;;;;;;;7.00;6.00;;;;;;;;6279046;22;45429;-76
2023/09/17 08:36:45;;;;;;;;;6.33;5.33;;;;;;;;6306210;22;45420;-76
2023/09/17 08:39:11;;;;;;;;;7.67;6.67;;;;;;;;6307426;22;45503;-77
2023/09/17 08:41:38;;;;;;;;;5.00;5.00;;;;;;;;6305980;22;45362;-76
2023/09/17 08:44:04;;;;;;;;;9.00;8.67;;;;;;;;6306777;22;45641;-77
2023/09/17 08:46:30;;;;;;;;;5.33;5.33;;;;;;;;6306703;22;45329;-77
2023/09/17 08:48:55;;;;;;;;;6.33;5.67;;;;;;;;6307053;22;45600;-77
2023/09/17 08:51:23;;;;;;;;;6.33;6.33;;;;;;;;6278474;22;45386;-77
2023/09/17 08:53:55;;;;;;;;;7.33;7.33;;;;;;;;6278472;22;45256;-76
2023/09/17 08:56:21;;;;;;;;;6.67;6.00;;;;;;;;6306869;22;45582;-78
2023/09/17 08:58:53;;;;;;;;;5.67;5.67;;;;;;;;6306613;22;46444;-77
2023/09/17 09:01:20;;;;;;;;;8.00;6.33;;;;;;;;6305639;22;45288;-76
2023/09/17 09:03:46;;;;;;;;;7.33;7.33;;;;;;;;6279525;22;45687;-76
2023/09/17 09:06:12;;;;;;;;;57.00;44.00;;;;;;;;6277483;22;45580;-76
2023/09/17 09:08:38;;;;;;;;;27.67;21.33;;;;;;;;6307335;22;45894;-77
2023/09/17 09:11:03;;;;;;;;;18.33;17.33;;;;;;;;6307131;22;45561;-77
2023/09/17 09:13:29;;;;;;;;;9.00;8.00;;;;;;;;6306267;22;45243;-77
2023/09/17 09:15:56;;;;;;;;;12.33;9.67;;;;;;;;6277197;22;45574;-76
2023/09/17 09:18:23;;;;;;;;;8.00;7.00;;;;;;;;6306543;22;46941;-77
2023/09/17 09:20:48;;;;;;;;;8.25;6.50;;;;;;;;6306029;22;45398;-77
2023/09/17 09:23:15;;;;;;;;;7.50;6.00;;;;;;;;6279049;22;45446;-76
2023/09/17 09:25:40;;;;;;;;;6.00;5.75;;;;;;;;6305542;22;45383;-76
2023/09/17 09:28:05;;;;;;;;;7.00;7.00;;;;;;;;6307161;22;46103;-76
2023/09/17 09:30:30;;;;;;;;;8.25;7.25;;;;;;;;6309538;22;45218;-77
2023/09/17 09:32:56;;;;;;;;;6.75;6.75;;;;;;;;6281379;22;45438;-78
2023/09/17 09:35:22;;;;;;;;;7.50;7.00;;;;;;;;6308692;22;45212;-77
2023/09/17 09:37:47;;;;;;;;;8.75;6.00;;;;;;;;6308438;22;45180;-76
2023/09/17 09:40:13;;;;;;;;;7.50;6.00;;;;;;;;6308020;22;45163;-77
2023/09/17 09:42:38;;;;;;;;;8.00;6.00;;;;;;;;6309463;22;45224;-77
2023/09/17 09:45:04;;;;;;;;;7.25;5.25;;;;;;;;6309372;22;45220;-77
2023/09/17 09:47:30;;;;;;;;;4.00;4.00;;;;;;;;6307165;22;45423;-77
2023/09/17 09:49:56;;;;;;;;;9.75;7.75;;;;;;;;6309233;22;45212;-77
2023/09/17 09:52:22;;;;;;;;;6.00;5.00;;;;;;;;6307336;22;45317;-77
2023/09/17 09:54:47;;;;;;;;;8.00;7.50;;;;;;;;6309433;22;45289;-77
2023/09/17 09:57:13;;;;;;;;;6.25;6.25;;;;;;;;6280884;22;47060;-78
2023/09/17 09:59:38;;;;;;;;;11.25;7.50;;;;;;;;6281542;22;45309;-77
2023/09/17 10:02:04;;;;;;;;;8.00;6.50;;;;;;;;6280397;22;45503;-77
2023/09/17 10:04:29;;;;;;;;;7.25;5.75;;;;;;;;6280620;22;46638;-76
2023/09/17 10:06:55;;;;;;;;;6.00;6.00;;;;;;;;6307998;22;46148;-77
2023/09/17 10:09:22;;;;;;;;;8.50;7.50;;;;;;;;6308718;22;45339;-79
2023/09/17 10:11:48;;;;;;;;;7.00;5.50;;;;;;;;6309052;22;45148;-79
2023/09/17 10:14:13;;;;;;;;;8.75;8.75;;;;;;;;6280842;22;45295;-79
2023/09/17 10:16:39;;;;;;;;;8.00;6.25;;;;;;;;6310027;22;46163;-78
2023/09/17 10:19:06;;;;;;;;;9.75;7.00;;;;;;;;6309240;22;45175;-77
2023/09/17 10:21:37;;;;;;;;;9.75;8.00;;;;;;;;6310173;22;45395;-78
2023/09/17 10:24:03;;;;;;;;;5.00;4.75;;;;;;;;6309642;22;45230;-75
2023/09/17 10:26:32;;;;;;;;;7.25;7.25;;;;;;;;6310181;22;45271;-76
2023/09/17 10:28:59;;;;;;;;;8.20;8.20;;;;;;;;6308529;22;45379;-75
2023/09/17 10:31:25;;;;;;;;;8.75;8.25;;;;;;;;6280922;22;45354;-76
2023/09/17 10:33:52;;;;;;;;;7.50;7.50;;;;;;;;6308610;22;45334;-78
2023/09/17 10:36:17;;;;;;;;;8.50;8.50;;;;;;;;6308279;22;46152;-79
2023/09/17 10:38:44;;;;;;;;;7.75;7.75;;;;;;;;6309100;22;45113;-78
2023/09/17 10:41:10;;;;;;;;;8.75;8.75;;;;;;;;6309074;22;45222;-79
2023/09/17 10:43:36;;;;;;;;;9.00;7.75;;;;;;;;6308858;22;45178;-80
2023/09/17 10:46:03;;;;;;;;;7.25;7.25;;;;;;;;6281082;22;47352;-80
2023/09/17 10:48:30;;;;;;;;;8.00;7.20;;;;;;;;6280574;22;45309;-78
2023/09/17 10:50:56;;;;;;;;;8.00;8.00;;;;;;;;6308106;22;45310;-76
2023/09/17 10:53:22;;;;;;;;;12.25;10.50;;;;;;;;6309040;22;45271;-79
2023/09/17 10:55:53;;;;;;;;;8.75;8.75;;;;;;;;6308644;22;46065;-79
2023/09/17 10:58:27;;;;;;;;;11.25;11.00;;;;;;;;6280826;22;45264;-78
2023/09/17 11:00:53;;;;;;;;;8.50;7.50;;;;;;;;6308960;22;45278;-79
2023/09/17 11:03:19;;;;;;;;;11.50;11.50;;;;;;;;6308690;22;45450;-79
2023/09/17 11:05:45;;;;;;;;;10.50;9.25;;;;;;;;6307642;22;45386;-78
2023/09/17 11:08:10;;;;;;;;;13.00;12.00;;;;;;;;6308583;22;45203;-81
2023/09/17 11:10:41;;;;;;;;;9.00;9.00;;;;;;;;6308520;22;45352;-79
2023/09/17 11:13:10;;;;;;;;;14.50;13.50;;;;;;;;6308913;22;45330;-82
2023/09/17 11:15:35;;;;;;;;;15.75;11.75;;;;;;;;6308265;22;46143;-79
2023/09/17 11:18:04;;;;;;;;;9.75;9.50;;;;;;;;6308435;22;45208;-78
2023/09/17 11:20:29;;;;;;;;;14.00;12.75;;;;;;;;6306793;22;45219;-79
2023/09/17 11:22:56;;;;;;;;;13.00;11.00;;;;;;;;6307606;22;45196;-78
2023/09/17 11:25:39;;;;;;;;;10.00;10.00;;;;;;;;6278551;22;47044;-78
2023/09/17 11:28:09;;;;;;;;;10.40;9.80;;;;;;;;6308351;22;45458;-80
2023/09/17 11:30:54;;;;;;;;;12.25;12.00;;;;;;;;6310038;22;45285;-79
2023/09/17 11:33:22;;;;;;;;;9.25;9.00;;;;;;;;6281114;22;45852;-79
2023/09/17 11:35:47;;;;;;;;;9.00;9.00;;;;;;;;6308381;22;46084;-79
2023/09/17 11:38:13;;;;;;;;;9.00;9.00;;;;;;;;6309197;22;45347;-78
2023/09/17 11:40:39;;;;;;;;;9.00;9.00;;;;;;;;6308784;22;45132;-79
2023/09/17 11:43:04;;;;;;;;;13.50;12.00;;;;;;;;6307776;22;45211;-76
2023/09/17 11:45:30;;;;;;;;;12.50;10.25;;;;;;;;6307785;22;45350;-76
2023/09/17 11:47:55;;;;;;;;;9.75;9.75;;;;;;;;6307603;22;45196;-78
2023/09/17 11:50:21;;;;;;;;;10.00;8.75;;;;;;;;6307823;22;45122;-78
2023/09/17 11:53:05;;;;;;;;;11.75;10.00;;;;;;;;6306871;22;45335;-78
2023/09/17 11:55:32;;;;;;;;;9.00;8.60;;;;;;;;6278914;22;46847;-78
2023/09/17 11:58:14;;;;;;;;;12.40;12.40;;;;;;;;6308213;22;45377;-78
2023/09/17 12:00:39;;;;;;;;;10.50;9.75;;;;;;;;6280429;22;45277;-77
2023/09/17 12:03:05;;;;;;;;;12.00;11.00;;;;;;;;6281583;22;45962;-77
2023/09/17 12:05:30;;;;;;;;;15.50;12.50;;;;;;;;6307415;22;45919;-77
2023/09/17 12:07:56;;;;;;;;;10.75;10.25;;;;;;;;6278096;22;45504;-77
2023/09/17 12:10:26;;;;;;;;;12.50;11.00;;;;;;;;6307853;22;45552;-78
2023/09/17 12:12:52;;;;;;;;;13.50;13.50;;;;;;;;6307089;22;45438;-78
2023/09/17 12:15:18;;;;;;;;;13.50;12.00;;;;;;;;6306613;22;45304;-77
2023/09/17 12:17:44;;;;;;;;;13.00;12.00;;;;;;;;6281442;22;45195;-77
2023/09/17 12:20:33;;;;;;;;;14.00;13.00;;;;;;;;6309580;22;45157;-77
2023/09/17 12:23:02;;;;;;;;;12.00;11.75;;;;;;;;6280912;22;47050;-77
2023/09/17 12:25:28;;;;;;;;;12.50;11.25;;;;;;;;6305465;22;46071;-76
2023/09/17 12:27:53;;;;;;;;;14.00;9.75;;;;;;;;6306991;22;45329;-77
2023/09/17 12:30:18;;;;;;;;;11.00;9.75;;;;;;;;6306786;22;45335;-75
2023/09/17 12:32:44;;;;;;;;;10.50;10.50;;;;;;;;6306990;22;45452;-75
2023/09/17 12:35:09;;;;;;;;;10.25;10.00;;;;;;;;6306642;22;45649;-75
2023/09/17 12:37:34;;;;;;;;;12.75;11.25;;;;;;;;6306442;22;45247;-76
2023/09/17 12:40:00;;;;;;;;;11.00;10.50;;;;;;;;6278779;22;45330;-76
2023/09/17 12:42:25;;;;;;;;;9.75;8.75;;;;;;;;6278392;22;47044;-76
2023/09/17 12:44:51;;;;;;;;;9.75;9.75;;;;;;;;6307387;22;45232;-76
2023/09/17 12:47:16;;;;;;;;;14.25;12.00;;;;;;;;6307447;22;45223;-77
2023/09/17 12:49:42;;;;;;;;;12.00;10.25;;;;;;;;6309709;22;45329;-75
2023/09/17 12:52:08;;;;;;;;;16.25;15.25;;;;;;;;6308897;22;45472;-76
2023/09/17 12:54:33;;;;;;;;;10.75;8.50;;;;;;;;6309666;22;45461;-77
2023/09/17 12:56:59;;;;;;;;;11.00;10.25;;;;;;;;6280112;22;45206;-76
2023/09/17 12:59:34;;;;;;;;;10.25;9.00;;;;;;;;6281901;22;45219;-76
2023/09/17 13:02:00;;;;;;;;;8.40;8.40;;;;;;;;6308536;22;45379;-76
2023/09/17 13:04:38;;;;;;;;;13.20;11.40;;;;;;;;6307940;22;45314;-76
2023/09/17 13:07:14;;;;;;;;;11.40;10.60;;;;;;;;6280302;22;45817;-77
2023/09/17 13:09:40;;;;;;;;;8.60;8.60;;;;;;;;6309502;22;45385;-78
2023/09/17 13:12:05;;;;;;;;;7.25;5.50;;;;;;;;6309070;22;45187;-75
2023/09/17 13:14:31;;;;;;;;;9.00;9.00;;;;;;;;6281506;22;48141;-76
2023/09/17 13:16:56;;;;;;;;;10.50;6.50;;;;;;;;6281167;22;45558;-76
2023/09/17 13:19:22;;;;;;;;;7.75;7.75;;;;;;;;6281601;22;45180;-76
2023/09/17 13:21:47;;;;;;;;;7.25;7.25;;;;;;;;6280050;22;46568;-76
2023/09/17 13:24:14;;;;;;;;;6.50;6.50;;;;;;;;6308073;22;45967;-76
2023/09/17 13:26:41;;;;;;;;;7.20;7.20;;;;;;;;6281271;22;45404;-76
2023/09/17 13:29:06;;;;;;;;;9.00;7.00;;;;;;;;6281437;22;45388;-76
2023/09/17 13:31:32;;;;;;;;;9.25;8.25;;;;;;;;6280563;22;45500;-76
2023/09/17 13:33:57;;;;;;;;;6.50;6.50;;;;;;;;6309081;22;45816;-75
2023/09/17 13:36:22;;;;;;;;;11.50;7.50;;;;;;;;6308798;22;45547;-76
2023/09/17 13:38:48;;;;;;;;;6.50;6.50;;;;;;;;6281496;22;45186;-76
2023/09/17 13:41:19;;;;;;;;;11.25;7.50;;;;;;;;6280346;22;45296;-76
2023/09/17 13:43:45;;;;;;;;;8.00;7.60;;;;;;;;6280925;22;47077;-76
2023/09/17 13:46:16;;;;;;;;;7.50;7.25;;;;;;;;6309022;22;45278;-77
2023/09/17 13:48:42;;;;;;;;;7.00;6.60;;;;;;;;6308809;22;45378;-75
2023/09/17 13:51:07;;;;;;;;;6.50;6.50;;;;;;;;6308710;22;45392;-76
2023/09/17 13:53:32;;;;;;;;;35.50;31.50;;;;;;;;6280997;22;47976;-76
2023/09/17 13:55:57;;;;;;;;;9.00;9.00;;;;;;;;6281215;22;45252;-76
2023/09/17 13:58:22;;;;;;;;;7.00;7.00;;;;;;;;6281168;22;45275;-76
2023/09/17 14:00:49;;;;;;;;;6.75;6.75;;;;;;;;6308972;22;45279;-76
2023/09/17 14:03:14;;;;;;;;;10.00;8.20;;;;;;;;6281234;22;46486;-76
2023/09/17 14:05:40;;;;;;;;;5.75;5.75;;;;;;;;6278824;22;45267;-76
2023/09/17 14:08:06;;;;;;;;;8.20;7.20;;;;;;;;6309536;22;45228;-77
2023/09/17 14:10:33;;;;;;;;;6.60;6.60;;;;;;;;6280716;22;46657;-75
2023/09/17 14:13:00;;;;;;;;;10.00;6.00;;;;;;;;6280661;22;47230;-75
2023/09/17 14:15:25;;;;;;;;;7.60;7.00;;;;;;;;6280954;22;45141;-76
2023/09/17 14:17:51;;;;;;;;;8.25;7.00;;;;;;;;6309394;22;45318;-76
2023/09/17 14:20:16;;;;;;;;;6.25;6.00;;;;;;;;6280721;22;45998;-75
2023/09/17 14:22:41;;;;;;;;;8.50;8.25;;;;;;;;6280399;22;45296;-76
2023/09/17 14:25:07;;;;;;;;;8.00;7.00;;;;;;;;6308534;22;45234;-76
2023/09/17 14:27:33;;;;;;;;;9.50;7.25;;;;;;;;6309166;22;45271;-75
2023/09/17 14:30:02;;;;;;;;;8.75;7.75;;;;;;;;6280617;22;46437;-75
2023/09/17 14:32:27;;;;;;;;;6.00;6.00;;;;;;;;6280704;22;47111;-76
2023/09/17 14:34:54;;;;;;;;;6.50;6.25;;;;;;;;6308992;22;45287;-76
2023/09/17 14:37:19;;;;;;;;;7.20;6.80;;;;;;;;6309015;22;45207;-77
2023/09/17 14:39:44;;;;;;;;;11.25;8.75;;;;;;;;6309156;22;45187;-76
2023/09/17 14:42:10;;;;;;;;;8.00;5.50;;;;;;;;6308454;22;46147;-76
2023/09/17 14:44:35;;;;;;;;;7.00;6.00;;;;;;;;6281101;22;45812;-77
2023/09/17 14:47:00;;;;;;;;;7.25;6.75;;;;;;;;6281144;22;45226;-77
2023/09/17 14:49:26;;;;;;;;;8.50;7.00;;;;;;;;6309446;22;45227;-76
2023/09/17 14:51:51;;;;;;;;;8.00;6.00;;;;;;;;6308791;22;46326;-78
2023/09/17 14:54:16;;;;;;;;;7.50;6.75;;;;;;;;6309395;22;45189;-77
2023/09/17 14:56:41;;;;;;;;;5.75;4.50;;;;;;;;6308699;22;45311;-77
2023/09/17 14:59:07;;;;;;;;;9.25;8.00;;;;;;;;6309838;22;45133;-77
2023/09/17 15:01:32;;;;;;;;;7.00;5.75;;;;;;;;6281587;22;45396;-77
2023/09/17 15:03:57;;;;;;;;;5.00;5.00;;;;;;;;6309684;22;45437;-77
2023/09/17 15:06:22;;;;;;;;;8.00;6.50;;;;;;;;6279670;22;45393;-77
2023/09/17 15:08:47;;;;;;;;;5.50;5.25;;;;;;;;6308895;22;45283;-77
2023/09/17 15:11:13;;;;;;;;;5.50;5.50;;;;;;;;6308430;22;45184;-77
2023/09/17 15:13:38;;;;;;;;;8.00;6.75;;;;;;;;6280645;22;45744;-77
2023/09/17 15:16:03;;;;;;;;;5.00;5.00;;;;;;;;6308877;22;45334;-77
2023/09/17 15:18:29;;;;;;;;;6.50;6.50;;;;;;;;6308707;22;45204;-77
2023/09/17 15:20:54;;;;;;;;;6.25;5.00;;;;;;;;6308127;22;46040;-76
2023/09/17 15:23:19;;;;;;;;;5.50;5.50;;;;;;;;6309078;22;45266;-76
2023/09/17 15:25:46;;;;;;;;;26.25;24.50;;;;;;;;6308307;22;45216;-76
2023/09/17 15:28:11;;;;;;;;;10.00;10.00;;;;;;;;6280179;22;47122;-76
2023/09/17 15:30:36;;;;;;;;;6.25;5.00;;;;;;;;6308548;22;46001;-76
2023/09/17 15:33:02;;;;;;;;;4.25;4.25;;;;;;;;6308564;22;45262;-75
2023/09/17 15:35:28;;;;;;;;;6.00;6.00;;;;;;;;6308497;22;45476;-76
2023/09/17 15:37:56;;;;;;;;;6.00;5.00;;;;;;;;6282233;22;46096;-75
2023/09/17 15:40:21;;;;;;;;;6.80;6.80;;;;;;;;6309640;22;45225;-76
2023/09/17 15:42:47;;;;;;;;;8.50;7.00;;;;;;;;6310563;22;45165;-76
2023/09/17 15:45:12;;;;;;;;;8.25;6.75;;;;;;;;6282071;22;45386;-76
2023/09/17 15:47:40;;;;;;;;;5.50;4.25;;;;;;;;6310478;22;45440;-77
2023/09/17 15:50:06;;;;;;;;;9.20;5.60;;;;;;;;6282421;22;46740;-72
2023/09/17 15:52:31;;;;;;;;;8.20;6.00;;;;;;;;6280961;22;45295;-72
2023/09/17 15:54:57;;;;;;;;;6.25;5.75;;;;;;;;6281555;22;45224;-72
2023/09/17 15:57:22;;;;;;;;;7.00;7.00;;;;;;;;6281616;22;46019;-72
2023/09/17 15:59:47;;;;;;;;;6.75;6.25;;;;;;;;6309851;22;45106;-73
2023/09/17 16:02:13;;;;;;;;;8.50;7.00;;;;;;;;6309292;22;45278;-72
2023/09/17 16:04:38;;;;;;;;;6.75;5.75;;;;;;;;6310330;22;45326;-72
2023/09/17 16:07:03;;;;;;;;;7.00;7.00;;;;;;;;6308526;22;45421;-72
2023/09/17 16:09:29;;;;;;;;;8.50;7.00;;;;;;;;6309081;22;45250;-72
2023/09/17 16:11:54;;;;;;;;;7.50;6.00;;;;;;;;6309591;22;45094;-72
2023/09/17 16:14:19;;;;;;;;;12.50;8.25;;;;;;;;6309933;22;45170;-72
2023/09/17 16:16:44;;;;;;;;;7.75;7.75;;;;;;;;6309130;22;45454;-72
2023/09/17 16:19:10;;;;;;;;;8.25;6.50;;;;;;;;6310026;22;45611;-72
2023/09/17 16:21:35;;;;;;;;;7.25;6.25;;;;;;;;6309344;22;45164;-72
2023/09/17 16:24:00;;;;;;;;;8.00;8.00;;;;;;;;6310238;22;45130;-72
2023/09/17 16:26:25;;;;;;;;;8.50;7.50;;;;;;;;6309616;22;45304;-72
2023/09/17 16:28:50;;;;;;;;;7.50;7.50;;;;;;;;6310063;22;45097;-73
2023/09/17 16:31:16;;;;;;;;;7.00;7.00;;;;;;;;6309538;22;45249;-73
2023/09/17 16:33:41;;;;;;;;;10.00;8.25;;;;;;;;6310373;22;45090;-72
2023/09/17 16:36:06;;;;;;;;;8.75;7.50;;;;;;;;6309120;22;45217;-73
2023/09/17 16:38:32;;;;;;;;;7.75;7.50;;;;;;;;6309591;22;45795;-72
2023/09/17 16:41:00;;;;;;;;;8.00;8.00;;;;;;;;6280401;22;45260;-70
2023/09/17 16:43:25;;;;;;;;;7.00;7.00;;;;;;;;6309737;22;45223;-70
2023/09/17 16:45:51;;;;;;;;;9.00;8.25;;;;;;;;6309291;22;45201;-71
2023/09/17 16:48:16;;;;;;;;;12.00;11.00;;;;;;;;6308897;22;45348;-73
2023/09/17 16:50:41;;;;;;;;;6.00;6.00;;;;;;;;6308962;22;45275;-73
2023/09/17 16:53:06;;;;;;;;;6.00;6.00;;;;;;;;6281534;22;45316;-72
2023/09/17 16:55:33;;;;;;;;;10.25;9.50;;;;;;;;6309073;22;45343;-72
2023/09/17 16:57:59;;;;;;;;;8.40;8.20;;;;;;;;6309203;22;45248;-71
2023/09/17 17:00:24;;;;;;;;;7.75;7.75;;;;;;;;6309053;22;45228;-71
2023/09/17 17:02:49;;;;;;;;;9.25;7.25;;;;;;;;6309394;22;45046;-72
2023/09/17 17:05:15;;;;;;;;;15.00;15.00;;;;;;;;6308730;22;45166;-72
2023/09/17 17:07:40;;;;;;;;;14.00;11.75;;;;;;;;6308678;22;46060;-71
2023/09/17 17:10:05;;;;;;;;;11.25;11.00;;;;;;;;6308780;22;45206;-71
2023/09/17 17:12:30;;;;;;;;;7.50;7.50;;;;;;;;6280415;22;45223;-73
2023/09/17 17:14:55;;;;;;;;;8.25;8.25;;;;;;;;6309251;22;45250;-73
2023/09/17 17:17:21;;;;;;;;;10.50;10.25;;;;;;;;6309050;22;46099;-73
2023/09/17 17:19:47;;;;;;;;;9.50;8.50;;;;;;;;6308673;22;45234;-73
2023/09/17 17:22:13;;;;;;;;;13.25;13.00;;;;;;;;6309278;22;45218;-73
2023/09/17 17:24:38;;;;;;;;;11.50;10.00;;;;;;;;6281140;22;45436;-73
2023/09/17 17:27:03;;;;;;;;;8.25;8.00;;;;;;;;6280364;22;46179;-73
2023/09/17 17:29:29;;;;;;;;;36.33;31.33;;;;;;;;6309456;22;45254;-73
2023/09/17 17:31:54;;;;;;;;;17.75;14.75;;;;;;;;6280203;22;45268;-72
2023/09/17 17:34:20;;;;;;;;;15.25;12.25;;;;;;;;6309091;22;45222;-72
2023/09/17 17:36:45;;;;;;;;;11.00;10.50;;;;;;;;6308314;22;45323;-72
2023/09/17 17:39:10;;;;;;;;;11.50;11.50;;;;;;;;6281294;22;45366;-71
2023/09/17 17:41:35;;;;;;;;;8.50;8.00;;;;;;;;6310982;22;45208;-71
2023/09/17 17:44:01;;;;;;;;;11.50;10.50;;;;;;;;6308723;22;45357;-72
2023/09/17 17:46:26;;;;;;;;;16.25;15.00;;;;;;;;6307791;22;45257;-72
2023/09/17 17:48:51;;;;;;;;;17.25;14.25;;;;;;;;6309278;22;45246;-72
2023/09/17 17:51:17;;;;;;;;;12.75;11.25;;;;;;;;6280826;22;45232;-73
2023/09/17 17:53:42;;;;;;;;;17.00;14.50;;;;;;;;6280881;22;46899;-72
2023/09/17 17:56:09;;;;;;;;;15.00;14.00;;;;;;;;6280254;22;47247;-72
2023/09/17 17:58:35;;;;;;;;;18.00;17.75;;;;;;;;6308073;22;45164;-72
2023/09/17 18:01:00;;;;;;;;;25.50;18.75;;;;;;;;6279912;22;45423;-72
2023/09/17 18:03:25;;;;;;;;;17.75;14.25;;;;;;;;6280468;22;46588;-72
2023/09/17 18:05:53;;;;;;;;;11.00;11.00;;;;;;;;6307857;22;46243;-72
2023/09/17 18:08:19;;;;;;;;;12.50;12.50;;;;;;;;6308490;22;45245;-73
2023/09/17 18:10:44;;;;;;;;;15.00;12.50;;;;;;;;6280627;22;45252;-72
2023/09/17 18:13:09;;;;;;;;;10.75;10.75;;;;;;;;6280293;22;46098;-72
2023/09/17 18:15:35;;;;;;;;;24.00;23.00;;;;;;;;6308508;22;45339;-73
2023/09/17 18:18:00;;;;;;;;;15.00;12.75;;;;;;;;6308125;22;45306;-72
2023/09/17 18:20:26;;;;;;;;;13.00;11.00;;;;;;;;6308314;22;45145;-72
2023/09/17 18:22:51;;;;;;;;;16.50;13.50;;;;;;;;6308024;22;46040;-72
2023/09/17 18:25:16;;;;;;;;;10.00;10.00;;;;;;;;6308595;22;45410;-73
2023/09/17 18:27:42;;;;;;;;;24.75;22.50;;;;;;;;6308638;22;45220;-72
2023/09/17 18:30:07;;;;;;;;;19.25;18.50;;;;;;;;6308597;22;45181;-73
2023/09/17 18:32:33;;;;;;;;;13.25;12.75;;;;;;;;6308490;22;45243;-72
2023/09/17 18:34:59;;;;;;;;;20.00;16.75;;;;;;;;6308126;22;46150;-72
2023/09/17 18:37:26;;;;;;;;;20.25;17.50;;;;;;;;6308342;22;45240;-72
2023/09/17 18:39:51;;;;;;;;;21.25;19.75;;;;;;;;6280826;22;45227;-72
2023/09/17 18:42:16;;;;;;;;;20.00;15.00;;;;;;;;6308248;22;45454;-72
2023/09/17 18:44:42;;;;;;;;;16.25;15.00;;;;;;;;6308813;22;45449;-72
2023/09/17 18:47:07;;;;;;;;;15.25;14.75;;;;;;;;6280582;22;45212;-72
2023/09/17 18:49:32;;;;;;;;;17.00;16.50;;;;;;;;6309290;22;45189;-72
2023/09/17 18:51:58;;;;;;;;;15.25;11.00;;;;;;;;6280223;22;46077;-73
2023/09/17 18:54:23;;;;;;;;;26.33;25.00;;;;;;;;6308944;22;46017;-72
2023/09/17 18:56:48;;;;;;;;;19.00;16.50;;;;;;;;6308334;22;45260;-73
2023/09/17 18:59:15;;;;;;;;;18.50;18.50;;;;;;;;6280566;22;45512;-75
2023/09/17 19:01:40;;;;;;;;;19.50;18.25;;;;;;;;6308053;22;45476;-74
2023/09/17 19:04:09;;;;;;;;;20.25;17.75;;;;;;;;6308875;22;45540;-74
2023/09/17 19:06:34;;;;;;;;;14.25;14.25;;;;;;;;6306858;22;45275;-74
2023/09/17 19:08:59;;;;;;;;;14.25;13.00;;;;;;;;6309030;22;45399;-73
2023/09/17 19:11:24;;;;;;;;;14.00;14.00;;;;;;;;6282558;22;46113;-73
2023/09/17 19:13:50;;;;;;;;;25.75;19.75;;;;;;;;6312035;22;46193;-73
2023/09/17 19:16:15;;;;;;;;;18.25;18.25;;;;;;;;6311839;22;45177;-74
2023/09/17 19:18:41;;;;;;;;;19.50;16.25;;;;;;;;6312179;22;45215;-73
2023/09/17 19:21:06;;;;;;;;;14.00;14.00;;;;;;;;6311446;22;45152;-73
2023/09/17 19:23:31;;;;;;;;;16.00;14.00;;;;;;;;6311901;22;45163;-72
2023/09/17 19:25:56;;;;;;;;;21.00;20.00;;;;;;;;6283694;22;45289;-72
2023/09/17 19:28:22;;;;;;;;;17.75;14.50;;;;;;;;6312109;22;45222;-70
2023/09/17 19:30:47;;;;;;;;;11.00;10.50;;;;;;;;6283986;22;45730;-72
2023/09/17 19:33:13;;;;;;;;;13.75;12.50;;;;;;;;6312323;22;46215;-71
2023/09/17 19:35:38;;;;;;;;;17.25;17.25;;;;;;;;6311770;22;45438;-71
2023/09/17 19:38:03;;;;;;;;;20.00;19.75;;;;;;;;6284385;22;45335;-72
2023/09/17 19:40:28;;;;;;;;;18.25;17.50;;;;;;;;6311941;22;45259;-72
2023/09/17 19:42:54;;;;;;;;;20.25;15.75;;;;;;;;6284043;22;47250;-72
2023/09/17 19:45:19;;;;;;;;;17.25;14.75;;;;;;;;6311926;22;45397;-72
2023/09/17 19:47:44;;;;;;;;;22.00;17.00;;;;;;;;6311782;22;45533;-73
2023/09/17 19:50:09;;;;;;;;;13.00;12.50;;;;;;;;6283143;22;45633;-74
2023/09/17 19:52:35;;;;;;;;;13.25;12.25;;;;;;;;6311735;22;45413;-74
2023/09/17 19:55:00;;;;;;;;;11.00;9.00;;;;;;;;6311955;22;45302;-73
2023/09/17 19:57:25;;;;;;;;;8.00;5.25;;;;;;;;6284006;22;45489;-75
2023/09/17 19:59:51;;;;;;;;;1.75;1.75;;;;;;;;6311465;22;45247;-75
2023/09/17 20:02:16;;;;;;;;;1.75;0.25;;;;;;;;6311098;22;46434;-76
2023/09/17 20:04:41;;;;;;;;;2.00;2.00;;;;;;;;6312035;22;45256;-74
2023/09/17 20:07:06;;;;;;;;;0.50;0.50;;;;;;;;6311225;22;45349;-74
2023/09/17 20:09:32;;;;;;;;;1.25;1.25;;;;;;;;6311906;22;45371;-74
2023/09/17 20:11:57;;;;;;;;;2.25;1.00;;;;;;;;6311325;22;45283;-73
2023/09/17 20:14:24;;;;;;;;;1.00;1.00;;;;;;;;6311965;22;45323;-73
2023/09/17 20:16:50;;;;;;;;;2.00;2.00;;;;;;;;6283738;22;45258;-74
2023/09/17 20:19:15;;;;;;;;;2.00;1.00;;;;;;;;6311722;22;45163;-73
2023/09/17 20:21:40;;;;;;;;;1.50;1.50;;;;;;;;6310167;22;46068;-73
2023/09/17 20:24:08;;;;;;;;;2.00;2.00;;;;;;;;6309932;22;45199;-72
2023/09/17 20:26:36;;;;;;;;;1.50;1.50;;;;;;;;6309509;22;45311;-73
2023/09/17 20:29:01;;;;;;;;;1.67;1.67;;;;;;;;6308522;22;45289;-73